createdAt,value
2023-01-02T00:00:28.370Z,21.80
2023-01-02T00:11:40.067Z,22.20
2023-01-02T00:14:22.902Z,23.40
2023-01-02T00:17:05.714Z,25.50
2023-01-02T00:19:48.730Z,22.60
2023-01-02T00:22:31.486Z,23.50
2023-01-02T00:25:14.577Z,22.40
2023-01-02T00:27:57.370Z,20.90
2023-01-02T00:30:40.262Z,22.70
2023-01-02T00:33:23.715Z,23.50
2023-01-02T00:36:08.986Z,22.00
2023-01-02T00:38:54.947Z,23.50
2023-01-02T00:41:37.690Z,21.50
2023-01-02T00:44:20.699Z,23.50
2023-01-02T00:47:03.668Z,19.10
2023-01-02T00:49:46.542Z,22.40
2023-01-02T00:52:29.491Z,28.90
2023-01-02T00:55:12.500Z,22.50
2023-01-02T00:57:55.589Z,32.00
2023-01-02T01:00:39.912Z,29.70
2023-01-02T01:03:22.751Z,29.40
2023-01-02T01:06:07.596Z,27.70
2023-01-02T01:08:50.345Z,24.30
2023-01-02T01:11:33.139Z,25.70
2023-01-02T01:14:16.227Z,30.50
2023-01-02T01:16:59.803Z,28.50
2023-01-02T01:19:42.590Z,27.60
2023-01-02T01:22:27.893Z,30.50
2023-01-02T01:25:11.051Z,32.50
2023-01-02T01:27:54.866Z,30.40
2023-01-02T01:30:37.720Z,33.50
2023-01-02T01:33:20.457Z,31.10
2023-01-02T01:36:08.922Z,30.70
2023-01-02T01:38:52.107Z,27.90
2023-01-02T01:41:34.946Z,29.90
2023-01-02T01:44:45.495Z,31.40
2023-01-02T01:47:42.455Z,28.40
2023-01-02T01:50:32.437Z,27.60
2023-01-02T01:53:18.873Z,26.90
2023-01-02T01:56:06.278Z,28.40
2023-01-02T01:58:49.859Z,34.70
2023-01-02T02:01:32.985Z,31.30
2023-01-02T02:04:19.282Z,31.20
2023-01-02T02:07:04.570Z,32.70
2023-01-02T02:09:59.746Z,31.60
2023-01-02T02:12:42.627Z,30.20
2023-01-02T02:15:41.702Z,34.40
2023-01-02T02:19:08.430Z,33.10
2023-01-02T02:22:17.560Z,32.60
2023-01-02T02:25:03.454Z,31.60
2023-01-02T02:27:55.711Z,30.40
2023-01-02T02:30:44.343Z,26.90
2023-01-02T02:33:33.252Z,32.40
2023-01-02T02:36:19.199Z,32.80
2023-01-02T02:39:23.042Z,28.30
2023-01-02T02:42:20.752Z,28.80
2023-01-02T02:45:18.505Z,27.50
2023-01-02T02:48:12.914Z,26.50
2023-01-02T02:51:05.271Z,27.40
2023-01-02T02:53:56.722Z,26.80
2023-01-02T02:56:41.918Z,25.30
2023-01-02T02:59:25.024Z,25.40
2023-01-02T03:02:08.515Z,28.20
2023-01-02T03:05:10.175Z,25.50
2023-01-02T03:08:33.353Z,26.10
2023-01-02T03:17:00.911Z,28.20
2023-01-02T03:19:50.477Z,33.80
2023-01-02T03:22:39.210Z,32.70
2023-01-02T03:25:22.853Z,31.30
2023-01-02T03:28:09.957Z,37.40
2023-01-02T03:30:57.386Z,35.70
2023-01-02T03:33:48.450Z,32.50
2023-01-02T03:36:33.804Z,34.50
2023-01-02T03:39:20.346Z,33.40
2023-01-02T03:42:11.779Z,30.30
2023-01-02T03:45:27.404Z,30.40
2023-01-02T03:48:15.862Z,31.30
2023-01-02T03:51:01.105Z,32.80
2023-01-02T03:53:45.171Z,29.50
2023-01-02T03:56:47.997Z,30.20
2023-01-02T03:59:49.156Z,25.60
2023-01-02T04:03:03.633Z,32.70
2023-01-02T04:05:55.805Z,35.10
2023-01-02T04:08:48.293Z,28.20
2023-01-02T04:11:33.958Z,27.00
2023-01-02T04:14:28.342Z,31.90
2023-01-02T04:17:15.038Z,32.10
2023-01-02T04:20:03.215Z,28.70
2023-01-02T04:22:54.383Z,32.50
2023-01-02T04:26:06.736Z,28.20
2023-01-02T04:28:50.056Z,28.80
2023-01-02T04:31:45.277Z,36.40
2023-01-02T04:34:33.184Z,30.60
2023-01-02T04:37:35.397Z,27.20
2023-01-02T04:40:29.675Z,27.30
2023-01-02T04:43:21.908Z,28.20
2023-01-02T04:46:04.899Z,30.90
2023-01-02T04:48:47.842Z,46.90
2023-01-02T04:51:30.634Z,40.30
2023-01-02T04:54:13.554Z,35.10
2023-01-02T04:56:56.324Z,30.60
2023-01-02T04:59:39.219Z,32.50
2023-01-02T05:02:22.165Z,27.60
2023-01-02T05:05:07.188Z,28.40
2023-01-02T05:07:50.021Z,31.60
2023-01-02T05:10:36.009Z,26.20
2023-01-02T05:13:20.337Z,28.70
2023-01-02T05:16:06.455Z,29.60
2023-01-02T05:18:49.962Z,29.90
2023-01-02T05:21:51.319Z,25.80
2023-01-02T05:24:34.249Z,24.30
2023-01-02T05:27:17.299Z,26.40
2023-01-02T05:30:00.586Z,24.80
2023-01-02T05:32:46.113Z,23.80
2023-01-02T05:35:32.929Z,23.50
2023-01-02T05:38:16.559Z,25.10
2023-01-02T05:41:03.700Z,29.70
2023-01-02T05:43:46.675Z,24.90
2023-01-02T05:46:29.579Z,25.20
2023-01-02T05:49:12.567Z,28.80
2023-01-02T05:51:55.532Z,24.00
2023-01-02T05:54:38.512Z,26.10
2023-01-02T05:57:21.430Z,32.60
2023-01-02T06:00:04.781Z,25.60
2023-01-02T06:02:58.147Z,25.90
2023-01-02T06:05:41.238Z,23.40
2023-01-02T06:08:24.163Z,22.30
2023-01-02T06:11:07.668Z,36.10
2023-01-02T06:13:52.639Z,25.00
2023-01-02T06:16:35.578Z,28.80
2023-01-02T06:19:18.564Z,23.50
2023-01-02T06:22:02.306Z,24.30
2023-01-02T06:24:45.238Z,22.70
2023-01-02T06:27:28.247Z,23.50
2023-01-02T06:30:11.438Z,22.90
2023-01-02T06:32:56.564Z,25.40
2023-01-02T06:35:39.552Z,23.10
2023-01-02T06:38:22.569Z,23.30
2023-01-02T06:41:07.153Z,23.80
2023-01-02T06:43:51.442Z,21.70
2023-01-02T06:46:34.412Z,23.70
2023-01-02T06:49:17.316Z,20.10
2023-01-02T06:52:00.144Z,20.70
2023-01-02T06:54:43.596Z,21.50
2023-01-02T06:57:32.080Z,19.90
2023-01-02T07:00:15.411Z,21.80
2023-01-02T07:02:58.352Z,17.90
2023-01-02T07:05:41.609Z,17.20
2023-01-02T07:08:24.699Z,20.30
2023-01-02T07:11:09.259Z,17.60
2023-01-02T07:13:54.271Z,21.30
2023-01-02T07:16:37.428Z,18.40
2023-01-02T07:19:20.513Z,19.00
2023-01-02T07:22:04.302Z,18.80
2023-01-02T07:24:47.440Z,20.70
2023-01-02T07:27:31.014Z,17.50
2023-01-02T07:30:14.811Z,19.70
2023-01-02T07:32:57.699Z,17.40
2023-01-02T07:35:40.958Z,19.30
2023-01-02T07:38:23.867Z,17.70
2023-01-02T07:41:17.718Z,18.10
2023-01-02T07:44:00.582Z,17.50
2023-01-02T07:46:43.547Z,14.30
2023-01-02T07:49:26.478Z,19.90
2023-01-02T07:52:10.825Z,15.10
2023-01-02T07:54:53.817Z,16.30
2023-01-02T07:57:36.929Z,20.30
2023-01-02T08:00:20.396Z,18.80
2023-01-02T08:03:03.339Z,24.50
2023-01-02T08:05:48.674Z,16.70
2023-01-02T08:08:31.585Z,16.70
2023-01-02T08:11:20.693Z,20.30
2023-01-02T08:14:03.821Z,16.40
2023-01-02T08:16:46.913Z,18.20
2023-01-02T08:19:29.934Z,16.10
2023-01-02T08:22:12.926Z,17.00
2023-01-02T08:24:56.827Z,17.10
2023-01-02T08:27:39.762Z,18.10
2023-01-02T08:30:22.902Z,17.20
2023-01-02T08:33:05.705Z,16.40
2023-01-02T08:35:49.004Z,16.70
2023-01-02T08:38:31.847Z,18.50
2023-01-02T08:41:15.403Z,13.90
2023-01-02T08:43:58.757Z,15.00
2023-01-02T08:46:43.088Z,13.40
2023-01-02T08:49:26.520Z,15.10
2023-01-02T08:52:09.324Z,14.80
2023-01-02T08:54:54.166Z,13.40
2023-01-02T08:57:37.178Z,15.50
2023-01-02T09:00:22.339Z,12.60
2023-01-02T09:03:05.358Z,13.50
2023-01-02T09:05:50.079Z,17.50
2023-01-02T09:08:33.114Z,12.80
2023-01-02T09:11:25.370Z,15.50
2023-01-02T09:14:10.333Z,14.30
2023-01-02T09:16:53.538Z,12.90
2023-01-02T09:19:36.588Z,12.80
2023-01-02T09:22:20.673Z,12.10
2023-01-02T09:25:04.896Z,9.50
2023-01-02T09:27:47.700Z,15.30
2023-01-02T09:30:32.546Z,10.30
2023-01-02T09:33:17.539Z,14.20
2023-01-02T09:36:02.388Z,11.40
2023-01-02T09:38:52.303Z,13.80
2023-01-02T09:41:48.176Z,13.50
2023-01-02T09:44:43.506Z,13.00
2023-01-02T09:47:31.341Z,14.20
2023-01-02T09:50:18.489Z,12.10
2023-01-02T09:53:04.401Z,13.10
2023-01-02T09:55:57.991Z,11.80
2023-01-02T09:58:50.386Z,14.90
2023-01-02T10:01:36.379Z,10.70
2023-01-02T10:04:25.448Z,12.10
2023-01-02T10:07:15.605Z,11.30
2023-01-02T10:10:26.897Z,11.40
2023-01-02T10:16:36.814Z,11.10
2023-01-02T10:19:48.764Z,10.30
2023-01-02T10:22:47.028Z,12.10
2023-01-02T10:25:36.312Z,12.90
2023-01-02T10:28:26.234Z,11.20
2023-01-02T10:31:15.604Z,11.40
2023-01-02T10:34:01.317Z,12.00
2023-01-02T10:36:46.183Z,11.60
2023-01-02T10:39:32.766Z,10.80
2023-01-02T10:42:16.801Z,11.90
2023-01-02T10:45:00.672Z,11.30
2023-01-02T10:47:46.821Z,10.40
2023-01-02T10:50:36.987Z,10.80
2023-01-02T10:53:32.475Z,13.20
2023-01-02T10:56:20.709Z,8.40
2023-01-02T10:59:04.923Z,10.00
2023-01-02T11:01:59.250Z,14.50
2023-01-02T11:04:46.653Z,11.70
2023-01-02T11:07:34.382Z,9.30
2023-01-02T11:10:33.802Z,10.90
2023-01-02T11:13:21.909Z,10.00
2023-01-02T11:16:06.026Z,11.50
2023-01-02T11:18:58.454Z,13.30
2023-01-02T11:21:41.612Z,15.30
2023-01-02T11:24:27.185Z,12.70
2023-01-02T11:27:10.049Z,10.60
2023-01-02T11:29:52.948Z,13.30
2023-01-02T11:32:40.821Z,14.60
2023-01-02T11:35:45.813Z,11.70
2023-01-02T11:38:50.447Z,14.00
2023-01-02T11:42:07.426Z,14.20
2023-01-02T11:45:10.507Z,13.70
2023-01-02T11:48:00.703Z,13.10
2023-01-02T11:50:44.477Z,12.60
2023-01-02T11:53:33.321Z,16.00
2023-01-02T11:56:28.988Z,10.10
2023-01-02T11:59:14.522Z,10.10
2023-01-02T12:02:40.122Z,13.50
2023-01-02T12:05:38.660Z,11.40
2023-01-02T12:08:51.647Z,12.00
2023-01-02T12:12:03.191Z,11.70
2023-01-02T12:15:19.202Z,13.10
2023-01-02T12:18:09.514Z,12.30
2023-01-02T12:21:21.949Z,17.00
2023-01-02T12:24:29.389Z,9.10
2023-01-02T12:27:26.904Z,11.70
2023-01-02T12:30:16.944Z,14.40
2023-01-02T12:33:42.596Z,15.30
2023-01-02T12:36:28.839Z,13.60
2023-01-02T12:39:22.637Z,12.70
2023-01-02T12:42:05.816Z,12.80
2023-01-02T12:44:53.238Z,10.60
2023-01-02T12:47:36.570Z,13.10
2023-01-02T12:50:33.927Z,12.30
2023-01-02T12:53:38.249Z,18.70
2023-01-02T12:56:44.000Z,12.50
2023-01-02T12:59:32.735Z,16.30
2023-01-02T13:02:36.454Z,14.70
2023-01-02T13:05:25.322Z,12.80
2023-01-02T13:08:18.012Z,12.50
2023-01-02T13:13:45.548Z,9.90
2023-01-02T13:16:29.134Z,13.50
2023-01-02T13:19:33.869Z,14.40
2023-01-02T13:22:23.096Z,12.70
2023-01-02T13:25:16.343Z,17.20
2023-01-02T13:28:00.651Z,16.00
2023-01-02T13:31:05.249Z,13.10
2023-01-02T13:33:56.219Z,9.20
2023-01-02T13:36:40.726Z,12.90
2023-01-02T13:39:29.736Z,13.60
2023-01-02T13:42:43.474Z,13.30
2023-01-02T13:45:31.258Z,13.80
2023-01-02T13:48:32.967Z,19.60
2023-01-02T13:51:21.460Z,15.00
2023-01-02T13:54:21.414Z,14.30
2023-01-02T13:57:18.170Z,10.50
2023-01-02T14:00:22.506Z,16.50
2023-01-02T14:03:24.365Z,13.80
2023-01-02T14:06:34.747Z,16.10
2023-01-02T14:09:21.026Z,14.30
2023-01-02T14:12:04.379Z,14.90
2023-01-02T14:14:52.534Z,14.10
2023-01-02T14:17:53.850Z,13.00
2023-01-02T14:20:43.727Z,15.40
2023-01-02T14:23:30.887Z,15.50
2023-01-02T14:26:25.522Z,16.40
2023-01-02T14:29:13.035Z,11.50
2023-01-02T14:32:02.835Z,13.40
2023-01-02T14:34:49.195Z,14.00
2023-01-02T14:37:48.576Z,15.90
2023-01-02T14:40:33.649Z,19.30
2023-01-02T14:43:31.350Z,13.20
2023-01-02T14:46:21.561Z,13.00
2023-01-02T14:49:26.326Z,16.30
2023-01-02T14:52:22.322Z,17.30
2023-01-02T14:55:17.199Z,11.40
2023-01-02T14:58:01.122Z,13.70
2023-01-02T15:00:48.008Z,14.10
2023-01-02T15:03:46.371Z,16.60
2023-01-02T15:06:41.830Z,12.10
2023-01-02T15:09:45.837Z,13.90
2023-01-02T15:12:52.234Z,17.00
2023-01-02T15:15:38.270Z,15.10
2023-01-02T15:18:33.789Z,15.80
2023-01-02T15:21:24.595Z,18.10
2023-01-02T15:24:16.561Z,17.40
2023-01-02T15:27:14.671Z,19.60
2023-01-02T15:30:00.253Z,18.00
2023-01-02T15:32:48.772Z,20.30
2023-01-02T15:35:36.373Z,17.90
2023-01-02T15:38:23.310Z,19.40
2023-01-02T15:41:06.756Z,23.00
2023-01-02T15:44:13.067Z,20.20
2023-01-02T15:46:56.687Z,20.40
2023-01-02T15:49:42.786Z,18.50
2023-01-02T15:52:30.804Z,19.00
2023-01-02T15:55:19.481Z,21.80
2023-01-02T15:58:15.120Z,16.60
2023-01-02T16:01:10.508Z,16.60
2023-01-02T16:04:01.887Z,19.40
2023-01-02T16:06:47.726Z,21.40
2023-01-02T16:09:31.662Z,18.20
2023-01-02T16:12:21.584Z,20.10
2023-01-02T16:15:05.286Z,17.80
2023-01-02T16:17:50.052Z,18.60
2023-01-02T16:20:33.385Z,20.70
2023-01-02T16:23:21.271Z,18.70
2023-01-02T16:26:06.879Z,18.50
2023-01-02T16:28:51.206Z,19.70
2023-01-02T16:31:58.347Z,18.60
2023-01-02T16:34:43.571Z,22.10
2023-01-02T16:37:32.387Z,22.10
2023-01-02T16:40:21.191Z,20.80
2023-01-02T16:43:24.532Z,17.90
2023-01-02T16:46:11.881Z,25.80
2023-01-02T16:48:58.445Z,20.20
2023-01-02T16:51:48.666Z,17.80
2023-01-02T16:54:31.786Z,20.10
2023-01-02T16:57:19.727Z,22.30
2023-01-02T17:00:03.004Z,21.20
2023-01-02T17:02:47.929Z,19.70
2023-01-02T17:05:42.762Z,19.10
2023-01-02T17:08:26.281Z,21.60
2023-01-02T17:11:15.482Z,21.90
2023-01-02T17:13:58.725Z,18.40
2023-01-02T17:16:41.611Z,16.80
2023-01-02T17:19:25.080Z,21.80
2023-01-02T17:22:07.940Z,19.60
2023-01-02T17:24:51.068Z,16.60
2023-01-02T17:27:35.027Z,14.70
2023-01-02T17:30:19.045Z,16.00
2023-01-02T17:33:04.313Z,15.60
2023-01-02T17:35:48.442Z,20.00
2023-01-02T17:38:31.801Z,15.10
2023-01-02T17:41:15.162Z,14.50
2023-01-02T17:44:01.837Z,14.10
2023-01-02T17:47:30.913Z,17.50
2023-01-02T17:49:51.655Z,17.50
2023-01-02T17:52:35.204Z,15.90
2023-01-02T17:55:20.205Z,18.20
2023-01-02T17:58:04.434Z,17.60
2023-01-02T18:00:47.957Z,16.80
2023-01-02T18:03:30.799Z,16.40
2023-01-02T18:06:15.459Z,15.80
2023-01-02T18:08:58.274Z,15.10
2023-01-02T18:11:43.212Z,17.10
2023-01-02T18:14:28.364Z,14.80
2023-01-02T18:17:30.110Z,16.80
2023-01-02T18:20:16.456Z,14.70
2023-01-02T18:23:00.155Z,16.00
2023-01-02T18:25:46.099Z,16.40
2023-01-02T18:28:28.951Z,14.60
2023-01-02T18:31:16.129Z,17.40
2023-01-02T18:34:45.783Z,19.40
2023-01-02T18:37:26.175Z,13.90
2023-01-02T18:40:36.344Z,15.20
2023-01-02T18:43:31.917Z,13.10
2023-01-02T18:46:19.463Z,16.00
2023-01-02T18:49:15.130Z,16.00
2023-01-02T18:52:17.122Z,15.50
2023-01-02T18:55:20.686Z,16.30
2023-01-02T18:58:31.725Z,18.80
2023-01-02T19:01:23.951Z,13.30
2023-01-02T19:04:26.679Z,16.30
2023-01-02T19:07:31.779Z,16.20
2023-01-02T19:10:37.628Z,18.30
2023-01-02T19:13:23.783Z,12.60
2023-01-02T19:16:19.426Z,15.60
2023-01-02T19:19:08.684Z,14.90
2023-01-02T19:21:53.559Z,16.50
2023-01-02T19:24:37.494Z,18.50
2023-01-02T19:27:26.950Z,18.20
2023-01-02T19:30:46.096Z,16.20
2023-01-02T19:33:42.738Z,16.00
2023-01-02T19:36:37.201Z,15.60
2023-01-02T19:39:35.691Z,14.00
2023-01-02T19:42:19.668Z,18.20
2023-01-02T19:45:08.953Z,15.20
2023-01-02T19:47:52.879Z,20.90
2023-01-02T19:50:36.185Z,17.10
2023-01-02T19:53:19.107Z,17.90
2023-01-02T19:56:02.794Z,16.00
2023-01-02T19:58:45.749Z,18.00
2023-01-02T20:01:29.286Z,14.70
2023-01-02T20:04:12.248Z,16.20
2023-01-02T20:06:55.393Z,17.40
2023-01-02T20:09:39.724Z,16.00
2023-01-02T20:12:34.911Z,18.40
2023-01-02T20:15:23.741Z,16.20
2023-01-02T20:18:08.909Z,15.10
2023-01-02T20:20:52.103Z,13.90
2023-01-02T20:23:35.022Z,14.10
2023-01-02T20:26:19.280Z,12.20
2023-01-02T20:29:04.195Z,16.60
2023-01-02T20:31:47.848Z,15.60
2023-01-02T20:34:30.693Z,18.60
2023-01-02T20:37:13.924Z,15.70
2023-01-02T20:39:56.950Z,14.30
2023-01-02T20:42:39.899Z,20.30
2023-01-02T20:45:23.769Z,20.90
2023-01-02T20:48:06.737Z,17.00
2023-01-02T20:50:49.659Z,17.80
2023-01-02T20:53:32.600Z,14.40
2023-01-02T20:56:15.505Z,20.40
2023-01-02T20:58:58.734Z,16.90
2023-01-02T21:01:44.283Z,19.00
2023-01-02T21:04:36.174Z,17.60
2023-01-02T21:07:21.099Z,16.00
2023-01-02T21:10:04.294Z,18.40
2023-01-02T21:13:05.748Z,17.40
2023-01-02T21:15:51.456Z,15.20
2023-01-02T21:18:40.179Z,16.60
2023-01-02T21:21:23.554Z,15.30
2023-01-02T21:24:06.980Z,18.60
2023-01-02T21:26:49.948Z,15.50
2023-01-02T21:29:32.994Z,15.30
2023-01-02T21:32:15.862Z,16.70
2023-01-02T21:34:58.777Z,19.00
2023-01-02T21:37:41.780Z,14.90
2023-01-02T21:40:24.632Z,16.60
2023-01-02T21:43:09.139Z,16.40
2023-01-02T21:45:52.031Z,13.60
2023-01-02T21:48:38.129Z,14.20
2023-01-02T21:51:21.036Z,10.30
2023-01-02T21:54:04.150Z,12.30
2023-01-02T21:56:47.035Z,11.70
2023-01-02T21:59:29.969Z,10.50
2023-01-02T22:02:12.970Z,15.90
2023-01-02T22:04:55.981Z,12.00
2023-01-02T22:07:42.445Z,11.10
2023-01-02T22:10:25.527Z,10.70
2023-01-02T22:13:08.469Z,11.20
2023-01-02T22:15:51.362Z,13.20
2023-01-02T22:18:38.115Z,10.10
2023-01-02T22:21:21.440Z,11.70
2023-01-02T22:24:04.718Z,5.60
2023-01-02T22:26:48.267Z,6.00
2023-01-02T22:30:00.373Z,9.80
2023-01-02T22:32:36.004Z,5.00
2023-01-02T22:35:19.043Z,5.80
2023-01-02T22:38:01.975Z,2.60
2023-01-02T22:40:44.909Z,4.50
2023-01-02T22:43:35.123Z,6.70
2023-01-02T22:46:25.297Z,5.00
2023-01-02T22:49:14.702Z,3.10
2023-01-02T22:52:06.905Z,4.40
2023-01-02T22:54:50.302Z,6.80
2023-01-02T22:57:33.183Z,5.70
2023-01-02T23:00:19.955Z,3.50
2023-01-02T23:03:02.941Z,2.90
2023-01-02T23:05:45.934Z,2.50
2023-01-02T23:08:29.253Z,2.10
2023-01-02T23:11:13.380Z,0.80
2023-01-02T23:13:57.335Z,1.60
2023-01-02T23:16:58.935Z,2.80
2023-01-02T23:19:41.788Z,1.20
2023-01-02T23:22:25.090Z,1.60
2023-01-02T23:25:08.660Z,1.50
2023-01-02T23:27:51.855Z,2.80
2023-01-02T23:30:34.994Z,2.10
2023-01-02T23:33:17.878Z,1.20
2023-01-02T23:36:00.804Z,1.40
2023-01-02T23:38:43.675Z,2.10
2023-01-02T23:41:26.691Z,3.30
2023-01-02T23:44:11.107Z,2.40
2023-01-02T23:46:54.864Z,2.50
2023-01-02T23:49:37.733Z,2.10
2023-01-02T23:52:20.601Z,1.40
2023-01-02T23:55:03.799Z,2.00
2023-01-02T23:57:46.676Z,1.80
